createdAt,value
2022-08-02T00:00:00.310Z,0.0
2022-08-02T00:05:00.274Z,0.0
2022-08-02T00:10:00.317Z,0.0
2022-08-02T00:15:00.276Z,0.0
2022-08-02T00:20:00.336Z,0.0
2022-08-02T00:25:00.284Z,0.0
2022-08-02T00:30:00.327Z,0.0
2022-08-02T00:35:00.313Z,0.0
2022-08-02T00:40:00.296Z,0.0
2022-08-02T00:45:00.280Z,0.0
2022-08-02T00:50:00.332Z,0.0
2022-08-02T00:55:00.363Z,0.0
2022-08-02T01:00:00.335Z,1.8
2022-08-02T01:05:00.305Z,0.0
2022-08-02T01:10:00.323Z,0.0
2022-08-02T01:15:00.315Z,0.0
2022-08-02T01:20:00.312Z,0.0
2022-08-02T01:25:00.365Z,0.0
2022-08-02T01:30:00.323Z,0.0
2022-08-02T01:35:00.299Z,0.0
2022-08-02T01:40:00.303Z,0.0
2022-08-02T01:45:00.348Z,0.0
2022-08-02T01:50:00.322Z,2.9
2022-08-02T01:55:00.292Z,2.2
2022-08-02T02:00:01.919Z,0.0
2022-08-02T02:05:00.265Z,0.0
2022-08-02T02:10:00.311Z,0.0
2022-08-02T02:15:00.305Z,0.0
2022-08-02T02:20:00.319Z,1.4
2022-08-02T02:25:00.438Z,2.2
2022-08-02T02:30:00.321Z,2.2
2022-08-02T02:35:00.284Z,2.5
2022-08-02T02:40:00.378Z,3.2
2022-08-02T02:45:00.320Z,3.2
2022-08-02T02:50:00.301Z,4.3
2022-08-02T02:55:00.271Z,0.0
2022-08-02T03:00:00.318Z,1.4
2022-08-02T03:05:00.281Z,1.8
2022-08-02T03:10:00.320Z,0.0
2022-08-02T03:15:00.281Z,0.0
2022-08-02T03:20:00.322Z,1.8
2022-08-02T03:25:00.288Z,0.0
2022-08-02T03:30:00.311Z,0.0
2022-08-02T03:35:00.268Z,0.0
2022-08-02T03:40:00.322Z,0.0
2022-08-02T03:45:08.994Z,0.0
2022-08-02T03:50:00.327Z,1.4
2022-08-02T03:55:00.187Z,1.8
2022-08-02T04:00:00.304Z,0.0
2022-08-02T04:05:00.284Z,0.0
2022-08-02T04:10:00.295Z,0.0
2022-08-02T04:15:00.275Z,1.4
2022-08-02T04:20:00.316Z,0.0
2022-08-02T04:25:01.225Z,0.0
2022-08-02T04:30:00.317Z,0.0
2022-08-02T04:35:20.674Z,0.0
2022-08-02T04:40:00.347Z,0.0
2022-08-02T04:45:00.300Z,2.2
2022-08-02T04:50:00.321Z,1.8
2022-08-02T04:55:00.307Z,2.5
2022-08-02T05:00:00.331Z,3.2
2022-08-02T05:05:00.256Z,4.7
2022-08-02T05:10:03.958Z,2.9
2022-08-02T05:15:00.306Z,3.6
2022-08-02T05:20:00.331Z,2.5
2022-08-02T05:25:00.265Z,2.2
2022-08-02T05:30:00.304Z,3.6
2022-08-02T05:35:00.263Z,2.2
2022-08-02T05:40:01.391Z,2.5
2022-08-02T05:45:00.310Z,1.4
2022-08-02T05:50:00.340Z,3.6
2022-08-02T05:55:00.318Z,0.0
2022-08-02T06:00:03.332Z,3.2
2022-08-02T06:05:00.300Z,4.3
2022-08-02T06:10:00.332Z,4.7
2022-08-02T06:15:00.305Z,3.6
2022-08-02T06:20:00.363Z,2.2
2022-08-02T06:25:00.292Z,5.0
2022-08-02T06:30:00.365Z,5.8
2022-08-02T06:35:00.307Z,3.2
2022-08-02T06:40:00.319Z,4.3
2022-08-02T06:45:00.202Z,6.5
2022-08-02T06:50:00.622Z,2.5
2022-08-02T06:55:00.647Z,6.5
2022-08-02T07:00:00.318Z,4.7
2022-08-02T07:05:00.311Z,7.9
2022-08-02T07:10:02.165Z,13.0
2022-08-02T07:15:00.375Z,6.1
2022-08-02T07:20:00.347Z,5.0
2022-08-02T07:25:00.362Z,6.5
2022-08-02T07:30:00.323Z,11.2
2022-08-02T07:35:07.680Z,6.1
2022-08-02T07:40:03.567Z,6.8
2022-08-02T07:45:00.193Z,5.8
2022-08-02T07:50:00.316Z,13.3
2022-08-02T07:55:00.285Z,5.8
2022-08-02T08:00:00.478Z,10.1
2022-08-02T08:05:00.299Z,7.2
2022-08-02T08:10:00.347Z,2.5
2022-08-02T08:15:00.331Z,4.3
2022-08-02T08:20:00.321Z,1.4
2022-08-02T08:25:00.306Z,9.0
2022-08-02T08:30:00.358Z,1.4
2022-08-02T08:35:00.354Z,6.5
2022-08-02T08:40:00.320Z,4.7
2022-08-02T08:45:01.945Z,6.1
2022-08-02T08:50:00.348Z,7.2
2022-08-02T08:55:00.320Z,7.2
2022-08-02T09:00:00.329Z,3.6
2022-08-02T09:05:00.329Z,15.5
2022-08-02T09:10:00.403Z,13.3
2022-08-02T09:15:00.308Z,6.1
2022-08-02T09:20:00.322Z,14.8
2022-08-02T09:25:00.320Z,9.7
2022-08-02T09:30:13.477Z,10.4
2022-08-02T09:35:00.334Z,7.2
2022-08-02T09:40:00.378Z,6.1
2022-08-02T09:45:00.368Z,7.9
2022-08-02T09:50:02.895Z,13.3
2022-08-02T09:55:00.311Z,11.9
2022-08-02T10:00:00.367Z,3.6
2022-08-02T10:05:02.465Z,14.8
2022-08-02T10:10:00.331Z,10.1
2022-08-02T10:15:00.361Z,9.7
2022-08-02T10:20:05.466Z,9.0
2022-08-02T10:25:00.188Z,5.4
2022-08-02T10:30:00.347Z,5.8
2022-08-02T10:35:24.970Z,11.9
2022-08-02T10:40:00.322Z,6.1
2022-08-02T10:45:00.340Z,2.9
2022-08-02T10:50:00.711Z,8.3
2022-08-02T10:55:00.302Z,5.8
2022-08-02T11:00:00.316Z,8.3
2022-08-02T11:05:00.291Z,3.6
2022-08-02T11:10:00.330Z,11.5
2022-08-02T11:15:00.292Z,10.1
2022-08-02T11:20:00.324Z,6.5
2022-08-02T11:25:00.668Z,4.0
2022-08-02T11:30:00.304Z,10.8
2022-08-02T11:35:00.314Z,15.8
2022-08-02T11:40:00.335Z,8.6
2022-08-02T11:45:00.312Z,8.6
2022-08-02T11:50:00.297Z,17.3
2022-08-02T11:55:00.313Z,16.2
2022-08-02T12:00:00.348Z,15.8
2022-08-02T12:05:02.229Z,11.9
2022-08-02T12:10:00.316Z,5.8
2022-08-02T12:15:00.323Z,17.6
2022-08-02T12:20:00.332Z,10.4
2022-08-02T12:25:00.333Z,11.5
2022-08-02T12:30:00.365Z,2.9
2022-08-02T12:35:00.288Z,13.7
2022-08-02T12:40:00.333Z,7.6
2022-08-02T12:45:00.554Z,10.1
2022-08-02T12:50:00.685Z,13.0
2022-08-02T12:55:00.297Z,7.6
2022-08-02T13:00:00.348Z,16.9
2022-08-02T13:05:00.306Z,9.7
2022-08-02T13:10:03.950Z,3.2
2022-08-02T13:15:00.301Z,11.9
2022-08-02T13:20:02.043Z,5.0
2022-08-02T13:25:00.299Z,13.0
2022-08-02T13:30:00.306Z,5.8
2022-08-02T13:35:00.471Z,14.8
2022-08-02T13:40:22.515Z,6.1
2022-08-02T13:45:14.522Z,5.4
2022-08-02T13:50:03.326Z,11.5
2022-08-02T13:55:01.362Z,5.0
2022-08-02T14:00:00.410Z,16.2
2022-08-02T14:05:00.297Z,6.1
2022-08-02T14:10:00.301Z,6.5
2022-08-02T14:15:00.333Z,16.6
2022-08-02T14:20:00.315Z,10.1
2022-08-02T14:25:09.709Z,15.1
2022-08-02T14:30:00.316Z,14.4
2022-08-02T14:35:00.284Z,7.2
2022-08-02T14:40:01.544Z,8.6
2022-08-02T14:45:00.317Z,12.6
2022-08-02T14:50:00.615Z,4.0
2022-08-02T14:55:00.304Z,7.6
2022-08-02T15:00:00.336Z,5.8
2022-08-02T15:05:00.310Z,11.9
2022-08-02T15:10:00.359Z,5.0
2022-08-02T15:15:00.298Z,4.7
2022-08-02T15:20:25.005Z,7.9
2022-08-02T15:25:00.297Z,11.2
2022-08-02T15:30:01.189Z,14.8
2022-08-02T15:35:00.407Z,5.8
2022-08-02T15:40:00.292Z,14.0
2022-08-02T15:45:00.413Z,11.9
2022-08-02T15:50:00.301Z,12.6
2022-08-02T15:55:07.741Z,7.9
2022-08-02T16:00:00.366Z,9.4
2022-08-02T16:05:00.339Z,8.3
2022-08-02T16:10:00.354Z,6.5
2022-08-02T16:15:00.325Z,8.3
2022-08-02T16:20:00.417Z,9.4
2022-08-02T16:25:00.303Z,9.4
2022-08-02T16:30:00.288Z,2.2
2022-08-02T16:35:09.523Z,2.9
2022-08-02T16:40:00.338Z,4.3
2022-08-02T16:45:00.301Z,3.2
2022-08-02T16:50:10.909Z,9.0
2022-08-02T16:55:00.319Z,8.6
2022-08-02T17:00:00.649Z,10.4
2022-08-02T17:05:00.310Z,5.0
2022-08-02T17:10:09.725Z,8.3
2022-08-02T17:15:53.293Z,4.0
2022-08-02T17:20:00.664Z,0.0
2022-08-02T17:25:00.309Z,3.6
2022-08-02T17:30:02.939Z,0.0
2022-08-02T17:35:04.272Z,1.4
2022-08-02T17:40:00.356Z,0.0
2022-08-02T17:45:25.062Z,2.2
2022-08-02T17:50:01.111Z,0.0
2022-08-02T17:55:00.359Z,0.0
2022-08-02T18:00:04.999Z,0.0
2022-08-02T18:05:00.330Z,0.0
2022-08-02T18:10:00.831Z,0.0
2022-08-02T18:15:14.176Z,0.0
2022-08-02T18:20:11.394Z,0.0
2022-08-02T18:25:09.898Z,0.0
2022-08-02T18:30:05.223Z,0.0
2022-08-02T18:35:00.278Z,0.0
2022-08-02T18:40:00.306Z,0.0
2022-08-02T18:45:00.318Z,0.0
2022-08-02T18:50:00.564Z,0.0
2022-08-02T18:55:00.375Z,0.0
2022-08-02T19:00:01.216Z,0.0
2022-08-02T19:05:00.314Z,0.0
2022-08-02T19:10:00.318Z,0.0
2022-08-02T19:15:01.596Z,0.0
2022-08-02T19:20:01.477Z,0.0
2022-08-02T19:25:01.915Z,0.0
2022-08-02T19:30:02.709Z,0.0
2022-08-02T19:35:00.373Z,0.0
2022-08-02T19:40:01.930Z,0.0
2022-08-02T19:45:00.306Z,0.0
2022-08-02T19:50:00.706Z,0.0
2022-08-02T19:55:59.264Z,0.0
2022-08-02T20:00:00.345Z,0.0
2022-08-02T20:05:24.212Z,0.0
2022-08-02T20:10:00.354Z,0.0
2022-08-02T20:15:00.350Z,0.0
2022-08-02T20:20:00.325Z,0.0
2022-08-02T20:25:00.338Z,0.0
2022-08-02T20:30:00.312Z,0.0
2022-08-02T20:35:00.315Z,0.0
2022-08-02T20:40:00.287Z,0.0
2022-08-02T20:45:00.351Z,0.0
2022-08-02T20:50:02.739Z,0.0
2022-08-02T20:55:00.367Z,0.0
2022-08-02T21:00:00.321Z,0.0
2022-08-02T21:05:18.486Z,0.0
2022-08-02T21:10:01.597Z,0.0
2022-08-02T21:15:00.299Z,0.0
2022-08-02T21:20:00.307Z,0.0
2022-08-02T21:25:00.878Z,0.0
2022-08-02T21:30:00.321Z,0.0
2022-08-02T21:35:00.295Z,0.0
2022-08-02T21:40:00.424Z,0.0
2022-08-02T21:45:00.300Z,0.0
2022-08-02T21:50:16.719Z,0.0
2022-08-02T21:55:00.273Z,0.0
2022-08-02T22:00:00.369Z,0.0
2022-08-02T22:05:03.558Z,0.0
2022-08-02T22:10:00.383Z,0.0
2022-08-02T22:15:00.988Z,0.0
2022-08-02T22:20:00.302Z,0.0
2022-08-02T22:25:04.525Z,0.0
2022-08-02T22:30:03.407Z,0.0
2022-08-02T22:35:00.607Z,0.0
2022-08-02T22:40:09.966Z,0.0
2022-08-02T22:45:00.542Z,0.0
2022-08-02T22:50:01.600Z,0.0
2022-08-02T22:55:00.295Z,0.0
2022-08-02T23:00:00.729Z,0.0
2022-08-02T23:05:00.292Z,0.0
2022-08-02T23:10:00.414Z,0.0
2022-08-02T23:15:00.309Z,0.0
2022-08-02T23:20:00.299Z,0.0
2022-08-02T23:25:00.338Z,0.0
2022-08-02T23:30:00.342Z,0.0
2022-08-02T23:35:00.288Z,0.0
2022-08-02T23:40:00.308Z,0.0
2022-08-02T23:45:00.305Z,0.0
2022-08-02T23:50:00.306Z,0.0
2022-08-02T23:55:00.276Z,0.0
